Montgat, Spain
Current Conditions -  °F | °C
As of 7:00 AM on Friday 19 Dec 2014 (Local Time) from LEBL Reporting Station
Clear Clear  
Wind Chill: 52°   Ceiling: Unl
Heat Index: 52°   Visibility: 6mi
Dew Point: 46°   Wind: 15mph
Humidity: 82%   Direction: 330°NNW
Pressure: 30.3"   Gusts: NA
Location:  41.47°N, 2.28°E
Report Text: LEBL 190600Z 33013KT 9000 NSC 11/08 Q1026 NOSIG
Loading
Personal Weather Stations






























Interactive Weather Map New forecast layout! Learn more

10-Day Weather Forecast

Advertisements
Track Severe Weather on mobile